EXS88VZ LPMA-EGCC
Flight info
| Callsign | EXS88VZ |
|---|---|
| Flight time | 3h 31m |
| Altitude | 40000 |
| Route | DEGUN DCT RULET DCT VABEM DCT TUNAV DCT AGADO DCT KORUL DCT KOLEK DCT EBOMO DCT RUSIB DCT NOZHU DCT SHIRI DCT TOJAQ DCT EPACE DCT ACCOP DCT MOCQO P16 AXCIS |
| Aircraft | B738/M-SDE2E3FGHIRWXY/LB1 |
Departure
| Time | 2026-05-05 19:06 |
|---|---|
| Airport | Cristiano Ronaldo International Airport (LPMA) |
Arrival
| Time | 2026-05-05 22:38 |
|---|---|
| Airport | Manchester Airport (EGCC) |
| Time | Latitude | Longitude | Altitude | Speed | Heading |
|---|---|---|---|---|---|
| 2026-05-05 18:18 | 32.69437 | -16.77556 | 175 ft | 0 kts | 139° |
| 2026-05-05 18:19 | 32.69437 | -16.77555 | 175 ft | 0 kts | 139° |
| 2026-05-05 18:20 | 32.69437 | -16.77556 | 175 ft | 0 kts | 139° |
| 2026-05-05 18:20 | 32.69437 | -16.77555 | 175 ft | 0 kts | 139° |
| 2026-05-05 18:20 | 32.69437 | -16.77556 | 175 ft | 0 kts | 139° |
| 2026-05-05 18:21 | 32.69437 | -16.77555 | 175 ft | 0 kts | 139° |
| 2026-05-05 18:22 | 32.69437 | -16.77556 | 175 ft | 0 kts | 139° |
| 2026-05-05 18:23 | 32.69437 | -16.77555 | 175 ft | 0 kts | 139° |
| 2026-05-05 18:25 | 32.69437 | -16.77556 | 175 ft | 0 kts | 139° |
| 2026-05-05 18:25 | 32.69437 | -16.77555 | 175 ft | 0 kts | 139° |
| 2026-05-05 18:25 | 32.69437 | -16.77556 | 175 ft | 0 kts | 139° |
| 2026-05-05 18:26 | 32.69437 | -16.77555 | 175 ft | 0 kts | 139° |
| 2026-05-05 18:29 | 32.69437 | -16.77556 | 175 ft | 0 kts | 139° |
| 2026-05-05 18:29 | 32.69437 | -16.77555 | 175 ft | 0 kts | 139° |
| 2026-05-05 18:29 | 32.69437 | -16.77556 | 175 ft | 0 kts | 139° |
| 2026-05-05 18:30 | 32.69437 | -16.77555 | 175 ft | 0 kts | 139° |
| 2026-05-05 18:31 | 32.69437 | -16.77556 | 175 ft | 0 kts | 139° |
| 2026-05-05 18:32 | 32.69437 | -16.77555 | 175 ft | 0 kts | 139° |
| 2026-05-05 18:34 | 32.69437 | -16.77556 | 175 ft | 0 kts | 139° |
| 2026-05-05 18:35 | 32.69437 | -16.77555 | 175 ft | 0 kts | 139° |
| 2026-05-05 18:35 | 32.69437 | -16.77556 | 175 ft | 0 kts | 139° |
| 2026-05-05 18:36 | 32.69437 | -16.77555 | 175 ft | 0 kts | 139° |
| 2026-05-05 18:36 | 32.69437 | -16.77556 | 175 ft | 0 kts | 139° |
| 2026-05-05 18:36 | 32.69437 | -16.77555 | 175 ft | 0 kts | 139° |
| 2026-05-05 18:37 | 32.69437 | -16.77556 | 175 ft | 0 kts | 139° |
| 2026-05-05 18:37 | 32.69437 | -16.77555 | 175 ft | 0 kts | 139° |
| 2026-05-05 18:38 | 32.69437 | -16.77556 | 175 ft | 0 kts | 139° |
| 2026-05-05 18:38 | 32.69437 | -16.77555 | 175 ft | 0 kts | 139° |
| 2026-05-05 18:38 | 32.69437 | -16.77556 | 175 ft | 0 kts | 139° |
| 2026-05-05 18:39 | 32.69437 | -16.77555 | 175 ft | 0 kts | 139° |
| 2026-05-05 18:40 | 32.69437 | -16.77556 | 175 ft | 0 kts | 139° |
| 2026-05-05 18:40 | 32.69437 | -16.77555 | 175 ft | 0 kts | 139° |
| 2026-05-05 18:41 | 32.69437 | -16.77556 | 175 ft | 0 kts | 139° |
| 2026-05-05 18:41 | 32.69437 | -16.77555 | 175 ft | 0 kts | 139° |
| 2026-05-05 18:43 | 32.69437 | -16.77556 | 175 ft | 0 kts | 139° |
| 2026-05-05 18:43 | 32.69437 | -16.77555 | 175 ft | 0 kts | 139° |
| 2026-05-05 18:44 | 32.69437 | -16.77556 | 175 ft | 0 kts | 139° |
| 2026-05-05 18:44 | 32.69437 | -16.77555 | 175 ft | 0 kts | 139° |
| 2026-05-05 18:46 | 32.69437 | -16.77556 | 175 ft | 0 kts | 139° |
| 2026-05-05 18:46 | 32.69437 | -16.77555 | 175 ft | 0 kts | 139° |
| 2026-05-05 18:47 | 32.69437 | -16.77556 | 175 ft | 0 kts | 139° |
| 2026-05-05 18:47 | 32.69437 | -16.77555 | 175 ft | 0 kts | 139° |
| 2026-05-05 18:47 | 32.69437 | -16.77556 | 175 ft | 0 kts | 139° |
| 2026-05-05 18:48 | 32.69437 | -16.77555 | 175 ft | 0 kts | 139° |
| 2026-05-05 18:49 | 32.69437 | -16.77556 | 175 ft | 0 kts | 139° |
| 2026-05-05 18:49 | 32.69437 | -16.77555 | 175 ft | 0 kts | 139° |
| 2026-05-05 18:50 | 32.69437 | -16.77556 | 175 ft | 0 kts | 139° |
| 2026-05-05 18:50 | 32.69437 | -16.77555 | 175 ft | 0 kts | 139° |
| 2026-05-05 18:52 | 32.69437 | -16.77556 | 175 ft | 0 kts | 139° |
| 2026-05-05 18:52 | 32.69437 | -16.77555 | 175 ft | 0 kts | 139° |
| 2026-05-05 18:52 | 32.69437 | -16.77556 | 175 ft | 0 kts | 139° |
| 2026-05-05 18:53 | 32.69437 | -16.77555 | 175 ft | 0 kts | 139° |
| 2026-05-05 18:55 | 32.69441 | -16.77560 | 175 ft | 4 kts | 141° |
| 2026-05-05 18:55 | 32.69464 | -16.77576 | 175 ft | 4 kts | 163° |
| 2026-05-05 18:55 | 32.69490 | -16.77580 | 175 ft | 4 kts | 189° |
| 2026-05-05 18:56 | 32.69515 | -16.77571 | 175 ft | 4 kts | 211° |
| 2026-05-05 18:56 | 32.69537 | -16.77552 | 175 ft | 4 kts | 225° |
| 2026-05-05 18:56 | 32.69543 | -16.77544 | 175 ft | 0 kts | 227° |
| 2026-05-05 18:59 | 32.69537 | -16.77552 | 175 ft | 6 kts | 227° |
| 2026-05-05 18:59 | 32.69486 | -16.77617 | 175 ft | 12 kts | 227° |
| 2026-05-05 18:59 | 32.69427 | -16.77688 | 175 ft | 12 kts | 226° |
| 2026-05-05 19:00 | 32.69371 | -16.77757 | 175 ft | 11 kts | 225° |
| 2026-05-05 19:00 | 32.69316 | -16.77825 | 175 ft | 11 kts | 226° |
| 2026-05-05 19:00 | 32.69293 | -16.77871 | 175 ft | 0 kts | 256° |
| 2026-05-05 19:04 | 32.69287 | -16.77912 | 175 ft | 13 kts | 267° |
| 2026-05-05 19:04 | 32.69286 | -16.78010 | 175 ft | 22 kts | 263° |
| 2026-05-05 19:04 | 32.69168 | -16.78171 | 175 ft | 27 kts | 224° |
| 2026-05-05 19:04 | 32.69039 | -16.78323 | 175 ft | 25 kts | 225° |
| 2026-05-05 19:05 | 32.68900 | -16.78422 | 175 ft | 17 kts | 234° |
| 2026-05-05 19:05 | 32.68934 | -16.78454 | 175 ft | 7 kts | 50° |
| 2026-05-05 19:05 | 32.68954 | -16.78424 | 175 ft | 0 kts | 48° |
| 2026-05-05 19:06 | 32.68956 | -16.78422 | 175 ft | 6 kts | 47° |
| 2026-05-05 19:06 | 32.69255 | -16.78071 | 175 ft | 113 kts | 44° |
| 2026-05-05 19:06 | 32.70007 | -16.77184 | 480 ft | 180 kts | 44° |
| 2026-05-05 19:06 | 32.70909 | -16.76040 | 1478 ft | 201 kts | 52° |
| 2026-05-05 19:07 | 32.71682 | -16.74507 | 2230 ft | 232 kts | 62° |
| 2026-05-05 19:07 | 32.72335 | -16.72700 | 3272 ft | 246 kts | 73° |
| 2026-05-05 19:07 | 32.72449 | -16.70671 | 4446 ft | 250 kts | 97° |
| 2026-05-05 19:07 | 32.71806 | -16.68730 | 5256 ft | 261 kts | 116° |
| 2026-05-05 19:08 | 32.70843 | -16.66751 | 5538 ft | 294 kts | 119° |
| 2026-05-05 19:08 | 32.69739 | -16.64535 | 5789 ft | 328 kts | 119° |
| 2026-05-05 19:08 | 32.68536 | -16.62112 | 6253 ft | 350 kts | 119° |
| 2026-05-05 19:08 | 32.67295 | -16.59581 | 7061 ft | 358 kts | 117° |
| 2026-05-05 19:09 | 32.66532 | -16.56789 | 7989 ft | 358 kts | 94° |
| 2026-05-05 19:09 | 32.66772 | -16.53855 | 8874 ft | 361 kts | 72° |
| 2026-05-05 19:09 | 32.67880 | -16.51171 | 9695 ft | 367 kts | 52° |
| 2026-05-05 19:09 | 32.69633 | -16.48953 | 10497 ft | 371 kts | 43° |
| 2026-05-05 19:10 | 32.71516 | -16.46809 | 11195 ft | 379 kts | 43° |
| 2026-05-05 19:10 | 32.73455 | -16.44644 | 11856 ft | 387 kts | 40° |
| 2026-05-05 19:10 | 32.75433 | -16.42441 | 12614 ft | 392 kts | 40° |
| 2026-05-05 19:10 | 32.77435 | -16.40200 | 13280 ft | 400 kts | 40° |
| 2026-05-05 19:11 | 32.79466 | -16.37909 | 14048 ft | 403 kts | 41° |
| 2026-05-05 19:11 | 32.81501 | -16.35597 | 14685 ft | 409 kts | 41° |
| 2026-05-05 19:11 | 32.83568 | -16.33239 | 15329 ft | 414 kts | 41° |
| 2026-05-05 19:11 | 32.85656 | -16.30852 | 15934 ft | 420 kts | 42° |
| 2026-05-05 19:12 | 32.87767 | -16.28433 | 16636 ft | 423 kts | 42° |
| 2026-05-05 19:12 | 32.89894 | -16.25994 | 17257 ft | 428 kts | 41° |
| 2026-05-05 19:12 | 32.92050 | -16.23518 | 17854 ft | 433 kts | 42° |
| 2026-05-05 19:12 | 32.94226 | -16.21019 | 18442 ft | 437 kts | 42° |
| 2026-05-05 19:13 | 32.96426 | -16.18490 | 18978 ft | 441 kts | 42° |
| 2026-05-05 19:13 | 32.98641 | -16.15943 | 19521 ft | 445 kts | 42° |
| 2026-05-05 19:13 | 33.00875 | -16.13370 | 20057 ft | 448 kts | 42° |
| 2026-05-05 19:13 | 33.03096 | -16.10812 | 20588 ft | 452 kts | 42° |
| 2026-05-05 19:14 | 33.05364 | -16.08199 | 21120 ft | 456 kts | 42° |
| 2026-05-05 19:14 | 33.07653 | -16.05557 | 21620 ft | 459 kts | 42° |
| 2026-05-05 19:14 | 33.09958 | -16.02897 | 22110 ft | 463 kts | 41° |
| 2026-05-05 19:14 | 33.12280 | -16.00214 | 22585 ft | 467 kts | 41° |
| 2026-05-05 19:15 | 33.14621 | -15.97507 | 23037 ft | 471 kts | 42° |
| 2026-05-05 19:15 | 33.16980 | -15.94778 | 23483 ft | 474 kts | 42° |
| 2026-05-05 19:15 | 33.19354 | -15.92028 | 23909 ft | 478 kts | 41° |
| 2026-05-05 19:15 | 33.21745 | -15.89257 | 24288 ft | 481 kts | 41° |
| 2026-05-05 19:16 | 33.24151 | -15.86466 | 24687 ft | 483 kts | 41° |
| 2026-05-05 19:16 | 33.26569 | -15.83658 | 25065 ft | 486 kts | 41° |
| 2026-05-05 19:16 | 33.29003 | -15.80830 | 25427 ft | 489 kts | 41° |
| 2026-05-05 19:16 | 33.31444 | -15.77991 | 25779 ft | 492 kts | 42° |
| 2026-05-05 19:17 | 33.33905 | -15.75126 | 26130 ft | 495 kts | 42° |
| 2026-05-05 19:17 | 33.36376 | -15.72247 | 26463 ft | 497 kts | 42° |
| 2026-05-05 19:17 | 33.38857 | -15.69355 | 26791 ft | 500 kts | 42° |
| 2026-05-05 19:17 | 33.41356 | -15.66440 | 27116 ft | 502 kts | 42° |
| 2026-05-05 19:18 | 33.43959 | -15.63651 | 27419 ft | 503 kts | 36° |
| 2026-05-05 19:18 | 33.46741 | -15.61101 | 27740 ft | 504 kts | 33° |
| 2026-05-05 19:18 | 33.49602 | -15.58665 | 28035 ft | 506 kts | 32° |
| 2026-05-05 19:18 | 33.52504 | -15.56242 | 28254 ft | 509 kts | 32° |
| 2026-05-05 19:19 | 33.55407 | -15.53798 | 28476 ft | 511 kts | 32° |
| 2026-05-05 19:19 | 33.58305 | -15.51317 | 28703 ft | 513 kts | 33° |
| 2026-05-05 19:19 | 33.61196 | -15.48799 | 28901 ft | 515 kts | 33° |
| 2026-05-05 19:19 | 33.64089 | -15.46250 | 29077 ft | 516 kts | 33° |
| 2026-05-05 19:20 | 33.66978 | -15.43686 | 29254 ft | 517 kts | 33° |
| 2026-05-05 19:20 | 33.69871 | -15.41112 | 29458 ft | 517 kts | 34° |
| 2026-05-05 19:20 | 33.72762 | -15.38538 | 29679 ft | 517 kts | 34° |
| 2026-05-05 19:20 | 33.75650 | -15.35967 | 29906 ft | 517 kts | 33° |
| 2026-05-05 19:21 | 33.78542 | -15.33393 | 30103 ft | 518 kts | 33° |
| 2026-05-05 19:21 | 33.81447 | -15.30808 | 30219 ft | 520 kts | 33° |
| 2026-05-05 19:21 | 33.84355 | -15.28219 | 30409 ft | 520 kts | 33° |
| 2026-05-05 19:21 | 33.87260 | -15.25629 | 30643 ft | 519 kts | 33° |
| 2026-05-05 19:22 | 33.90155 | -15.23047 | 30884 ft | 517 kts | 33° |
| 2026-05-05 19:22 | 33.93004 | -15.20502 | 31110 ft | 517 kts | 33° |
| 2026-05-05 19:22 | 33.95889 | -15.17925 | 31328 ft | 516 kts | 33° |
| 2026-05-05 19:22 | 33.98772 | -15.15346 | 31549 ft | 516 kts | 33° |
| 2026-05-05 19:23 | 34.01651 | -15.12769 | 31770 ft | 515 kts | 33° |
| 2026-05-05 19:23 | 34.04526 | -15.10193 | 32009 ft | 515 kts | 33° |
| 2026-05-05 19:23 | 34.07397 | -15.07618 | 32312 ft | 512 kts | 33° |
| 2026-05-05 19:23 | 34.10250 | -15.05057 | 32614 ft | 510 kts | 33° |
| 2026-05-05 19:24 | 34.13091 | -15.02504 | 32866 ft | 509 kts | 33° |
| 2026-05-05 19:24 | 34.15935 | -14.99948 | 33097 ft | 509 kts | 33° |
| 2026-05-05 19:24 | 34.18768 | -14.97399 | 33312 ft | 509 kts | 33° |
| 2026-05-05 19:24 | 34.21606 | -14.94843 | 33535 ft | 509 kts | 33° |
| 2026-05-05 19:25 | 34.24443 | -14.92290 | 33774 ft | 508 kts | 33° |
| 2026-05-05 19:25 | 34.27370 | -14.89933 | 33998 ft | 504 kts | 27° |
| 2026-05-05 19:25 | 34.30410 | -14.87824 | 34225 ft | 503 kts | 25° |
| 2026-05-05 19:25 | 34.33480 | -14.85805 | 34435 ft | 502 kts | 24° |
| 2026-05-05 19:26 | 34.36558 | -14.83814 | 34649 ft | 501 kts | 25° |
| 2026-05-05 19:26 | 34.39624 | -14.81823 | 34857 ft | 500 kts | 25° |
| 2026-05-05 19:26 | 34.42678 | -14.79816 | 35046 ft | 500 kts | 25° |
| 2026-05-05 19:26 | 34.45726 | -14.77790 | 35244 ft | 500 kts | 25° |
| 2026-05-05 19:27 | 34.48768 | -14.75748 | 35415 ft | 500 kts | 25° |
| 2026-05-05 19:27 | 34.51810 | -14.73694 | 35602 ft | 500 kts | 25° |
| 2026-05-05 19:27 | 34.54844 | -14.71639 | 35778 ft | 500 kts | 25° |
| 2026-05-05 19:27 | 34.57878 | -14.69581 | 35965 ft | 499 kts | 25° |
| 2026-05-05 19:28 | 34.60905 | -14.67526 | 36169 ft | 499 kts | 25° |
| 2026-05-05 19:28 | 34.63934 | -14.65469 | 36388 ft | 498 kts | 25° |
| 2026-05-05 19:28 | 34.66950 | -14.63421 | 36609 ft | 497 kts | 25° |
| 2026-05-05 19:28 | 34.69967 | -14.61371 | 36783 ft | 497 kts | 25° |
| 2026-05-05 19:29 | 34.72989 | -14.59317 | 36951 ft | 497 kts | 25° |
| 2026-05-05 19:29 | 34.76004 | -14.57265 | 37122 ft | 497 kts | 25° |
| 2026-05-05 19:29 | 34.79020 | -14.55212 | 37229 ft | 497 kts | 25° |
| 2026-05-05 19:29 | 34.82045 | -14.53151 | 37379 ft | 497 kts | 25° |
| 2026-05-05 19:30 | 34.85020 | -14.51121 | 37510 ft | 497 kts | 25° |
| 2026-05-05 19:30 | 34.88035 | -14.49063 | 37682 ft | 497 kts | 25° |
| 2026-05-05 19:30 | 34.91044 | -14.47006 | 37865 ft | 495 kts | 25° |
| 2026-05-05 19:30 | 34.94089 | -14.44923 | 38039 ft | 495 kts | 25° |
| 2026-05-05 19:31 | 34.97046 | -14.42899 | 38189 ft | 494 kts | 25° |
| 2026-05-05 19:31 | 35.00042 | -14.40846 | 38332 ft | 494 kts | 25° |
| 2026-05-05 19:31 | 35.03038 | -14.38793 | 38455 ft | 494 kts | 25° |
| 2026-05-05 19:31 | 35.06035 | -14.36737 | 38584 ft | 494 kts | 25° |
| 2026-05-05 19:32 | 35.09027 | -14.34682 | 38713 ft | 494 kts | 25° |
| 2026-05-05 19:32 | 35.12019 | -14.32625 | 38831 ft | 493 kts | 25° |
| 2026-05-05 19:32 | 35.15009 | -14.30568 | 38937 ft | 493 kts | 25° |
| 2026-05-05 19:32 | 35.17997 | -14.28511 | 39038 ft | 493 kts | 25° |
| 2026-05-05 19:33 | 35.20986 | -14.26451 | 39144 ft | 493 kts | 25° |
| 2026-05-05 19:33 | 35.23969 | -14.24393 | 39245 ft | 492 kts | 25° |
| 2026-05-05 19:33 | 35.29935 | -14.20273 | 39416 ft | 493 kts | 25° |
| 2026-05-05 19:34 | 35.35912 | -14.16139 | 39561 ft | 493 kts | 25° |
| 2026-05-05 19:35 | 35.44862 | -14.09933 | 39891 ft | 491 kts | 25° |
| 2026-05-05 19:35 | 35.47830 | -14.07872 | 40006 ft | 490 kts | 26° |
| 2026-05-05 19:35 | 35.50796 | -14.05810 | 40105 ft | 490 kts | 26° |
| 2026-05-05 19:36 | 35.56736 | -14.01677 | 40148 ft | 492 kts | 26° |
| 2026-05-05 19:36 | 35.62680 | -13.97533 | 40155 ft | 491 kts | 26° |
| 2026-05-05 19:37 | 35.68613 | -13.93389 | 40162 ft | 490 kts | 26° |
| 2026-05-05 19:37 | 35.74531 | -13.89249 | 40162 ft | 489 kts | 26° |
| 2026-05-05 19:38 | 35.80441 | -13.85108 | 40155 ft | 488 kts | 26° |
| 2026-05-05 19:38 | 35.86344 | -13.80964 | 40111 ft | 486 kts | 26° |
| 2026-05-05 19:38 | 35.89214 | -13.78944 | 39868 ft | 478 kts | 26° |
| 2026-05-05 19:39 | 35.92098 | -13.76913 | 39275 ft | 477 kts | 25° |
| 2026-05-05 19:39 | 35.94991 | -13.74878 | 38570 ft | 479 kts | 25° |
| 2026-05-05 19:39 | 35.97870 | -13.72849 | 38409 ft | 476 kts | 25° |
| 2026-05-05 19:39 | 36.00762 | -13.70812 | 38283 ft | 482 kts | 25° |
| 2026-05-05 19:40 | 36.03696 | -13.68745 | 38181 ft | 488 kts | 25° |
| 2026-05-05 19:40 | 36.09635 | -13.64550 | 38168 ft | 493 kts | 26° |
| 2026-05-05 19:41 | 36.15508 | -13.60383 | 37655 ft | 479 kts | 26° |
| 2026-05-05 19:41 | 36.18400 | -13.58330 | 36817 ft | 481 kts | 26° |
| 2026-05-05 19:41 | 36.21300 | -13.56273 | 36430 ft | 479 kts | 26° |
| 2026-05-05 19:41 | 36.24204 | -13.54213 | 36329 ft | 485 kts | 26° |
| 2026-05-05 19:42 | 36.27156 | -13.52120 | 36219 ft | 493 kts | 26° |
| 2026-05-05 19:42 | 36.33153 | -13.47854 | 36170 ft | 500 kts | 26° |
| 2026-05-05 19:43 | 36.39172 | -13.43557 | 36150 ft | 498 kts | 26° |
| 2026-05-05 19:43 | 36.45165 | -13.39273 | 36165 ft | 497 kts | 26° |
| 2026-05-05 19:44 | 36.51159 | -13.34983 | 36163 ft | 498 kts | 26° |
| 2026-05-05 19:44 | 36.57169 | -13.30705 | 36159 ft | 497 kts | 25° |
| 2026-05-05 19:45 | 36.63246 | -13.26588 | 36158 ft | 497 kts | 24° |
| 2026-05-05 19:45 | 36.69334 | -13.22514 | 36157 ft | 497 kts | 24° |
| 2026-05-05 19:46 | 36.75419 | -13.18413 | 36177 ft | 497 kts | 24° |
| 2026-05-05 19:46 | 36.81497 | -13.14286 | 36163 ft | 497 kts | 24° |
| 2026-05-05 19:47 | 36.87559 | -13.10155 | 36156 ft | 496 kts | 24° |
| 2026-05-05 19:47 | 36.93611 | -13.06024 | 36156 ft | 496 kts | 24° |
| 2026-05-05 19:48 | 36.99665 | -13.01886 | 36183 ft | 496 kts | 24° |
| 2026-05-05 19:48 | 37.05715 | -12.97744 | 36163 ft | 496 kts | 24° |
| 2026-05-05 19:49 | 37.11772 | -12.93589 | 36154 ft | 496 kts | 25° |
| 2026-05-05 19:49 | 37.17821 | -12.89431 | 36160 ft | 496 kts | 25° |
| 2026-05-05 19:50 | 37.23868 | -12.85268 | 36157 ft | 496 kts | 25° |
| 2026-05-05 19:50 | 37.29877 | -12.81123 | 36161 ft | 496 kts | 25° |
| 2026-05-05 19:51 | 37.35931 | -12.76939 | 36157 ft | 497 kts | 24° |
| 2026-05-05 19:51 | 37.41988 | -12.72746 | 36158 ft | 497 kts | 25° |
| 2026-05-05 19:52 | 37.48052 | -12.68539 | 36159 ft | 497 kts | 25° |
| 2026-05-05 19:52 | 37.54108 | -12.64331 | 36168 ft | 497 kts | 25° |
| 2026-05-05 19:53 | 37.60168 | -12.60112 | 36157 ft | 498 kts | 25° |
| 2026-05-05 19:53 | 37.66232 | -12.55881 | 36157 ft | 498 kts | 25° |
| 2026-05-05 19:54 | 37.72290 | -12.51648 | 36158 ft | 498 kts | 25° |
| 2026-05-05 19:54 | 37.78348 | -12.47406 | 36156 ft | 498 kts | 25° |
| 2026-05-05 19:55 | 37.83387 | -12.43872 | 36154 ft | 498 kts | 25° |
| 2026-05-05 19:55 | 37.89443 | -12.39616 | 36158 ft | 498 kts | 25° |
| 2026-05-05 19:56 | 37.95503 | -12.35351 | 36154 ft | 498 kts | 25° |
| 2026-05-05 19:56 | 38.01559 | -12.31079 | 36173 ft | 498 kts | 25° |
| 2026-05-05 19:57 | 38.07619 | -12.26797 | 36154 ft | 499 kts | 25° |
| 2026-05-05 19:57 | 38.13676 | -12.22509 | 36152 ft | 498 kts | 25° |
| 2026-05-05 19:58 | 38.19732 | -12.18212 | 36150 ft | 498 kts | 25° |
| 2026-05-05 19:58 | 38.25786 | -12.13910 | 36150 ft | 498 kts | 25° |
| 2026-05-05 19:59 | 38.31833 | -12.09604 | 36155 ft | 498 kts | 25° |
| 2026-05-05 19:59 | 38.37869 | -12.05297 | 36146 ft | 497 kts | 25° |
| 2026-05-05 20:00 | 38.43906 | -12.00981 | 36161 ft | 497 kts | 25° |
| 2026-05-05 20:00 | 38.49939 | -11.96661 | 36150 ft | 498 kts | 25° |
| 2026-05-05 20:01 | 38.55978 | -11.92327 | 36166 ft | 498 kts | 25° |
| 2026-05-05 20:01 | 38.62012 | -11.87988 | 36137 ft | 498 kts | 25° |
| 2026-05-05 20:02 | 38.68042 | -11.83643 | 36150 ft | 497 kts | 25° |
| 2026-05-05 20:02 | 38.74026 | -11.79324 | 36152 ft | 497 kts | 25° |
| 2026-05-05 20:03 | 38.80037 | -11.74976 | 36141 ft | 494 kts | 25° |
| 2026-05-05 20:03 | 38.86010 | -11.70647 | 36142 ft | 493 kts | 25° |
| 2026-05-05 20:04 | 38.91993 | -11.66305 | 36144 ft | 494 kts | 25° |
| 2026-05-05 20:04 | 38.97972 | -11.61955 | 36144 ft | 492 kts | 25° |
| 2026-05-05 20:04 | 39.00903 | -11.59814 | 36137 ft | 477 kts | 25° |
| 2026-05-05 20:05 | 39.03753 | -11.57731 | 36127 ft | 467 kts | 25° |
| 2026-05-05 20:05 | 39.09392 | -11.53616 | 36139 ft | 467 kts | 25° |
| 2026-05-05 20:06 | 39.15049 | -11.49484 | 36139 ft | 469 kts | 25° |
| 2026-05-05 20:06 | 39.20727 | -11.45322 | 36142 ft | 471 kts | 25° |
| 2026-05-05 20:07 | 39.26431 | -11.41133 | 36154 ft | 472 kts | 26° |
| 2026-05-05 20:07 | 39.32135 | -11.36900 | 36138 ft | 474 kts | 28° |
| 2026-05-05 20:08 | 39.37604 | -11.32086 | 36147 ft | 476 kts | 32° |
| 2026-05-05 20:08 | 39.42971 | -11.27041 | 36144 ft | 476 kts | 32° |
| 2026-05-05 20:09 | 39.48338 | -11.22025 | 36121 ft | 476 kts | 32° |
| 2026-05-05 20:09 | 39.53718 | -11.17056 | 36145 ft | 474 kts | 32° |
| 2026-05-05 20:10 | 39.59089 | -11.12115 | 36137 ft | 472 kts | 31° |
| 2026-05-05 20:10 | 39.64435 | -11.07191 | 36141 ft | 471 kts | 32° |
| 2026-05-05 20:11 | 39.69764 | -11.02271 | 36123 ft | 470 kts | 32° |
| 2026-05-05 20:11 | 39.75081 | -10.97351 | 36153 ft | 468 kts | 32° |
| 2026-05-05 20:12 | 39.80388 | -10.92431 | 36135 ft | 468 kts | 32° |
| 2026-05-05 20:12 | 39.85686 | -10.87508 | 36127 ft | 468 kts | 32° |
| 2026-05-05 20:13 | 39.90987 | -10.82574 | 36132 ft | 468 kts | 32° |
| 2026-05-05 20:13 | 39.96284 | -10.77634 | 36128 ft | 469 kts | 32° |
| 2026-05-05 20:14 | 40.01591 | -10.72676 | 36135 ft | 470 kts | 32° |
| 2026-05-05 20:14 | 40.06908 | -10.67697 | 36121 ft | 470 kts | 32° |
| 2026-05-05 20:15 | 40.12222 | -10.62711 | 36127 ft | 471 kts | 32° |
| 2026-05-05 20:15 | 40.17547 | -10.57706 | 36121 ft | 471 kts | 32° |
| 2026-05-05 20:16 | 40.22832 | -10.52727 | 36133 ft | 471 kts | 32° |
| 2026-05-05 20:16 | 40.28155 | -10.47704 | 36118 ft | 472 kts | 32° |
| 2026-05-05 20:17 | 40.33481 | -10.42668 | 36121 ft | 472 kts | 32° |
| 2026-05-05 20:17 | 40.38802 | -10.37626 | 36123 ft | 472 kts | 32° |
| 2026-05-05 20:18 | 40.44117 | -10.32581 | 36118 ft | 472 kts | 32° |
| 2026-05-05 20:18 | 40.49435 | -10.27521 | 36121 ft | 472 kts | 32° |
| 2026-05-05 20:19 | 40.54749 | -10.22457 | 36111 ft | 472 kts | 32° |
| 2026-05-05 20:19 | 40.60054 | -10.17390 | 36121 ft | 471 kts | 32° |
| 2026-05-05 20:20 | 40.65360 | -10.12312 | 36111 ft | 471 kts | 32° |
| 2026-05-05 20:20 | 40.70659 | -10.07231 | 36134 ft | 471 kts | 32° |
| 2026-05-05 20:21 | 40.75948 | -10.02149 | 36109 ft | 471 kts | 32° |
| 2026-05-05 20:21 | 40.81236 | -9.97058 | 36112 ft | 470 kts | 32° |
| 2026-05-05 20:22 | 40.86513 | -9.91967 | 36107 ft | 470 kts | 32° |
| 2026-05-05 20:22 | 40.91788 | -9.86868 | 36105 ft | 469 kts | 32° |
| 2026-05-05 20:23 | 40.97053 | -9.81768 | 36106 ft | 469 kts | 32° |
| 2026-05-05 20:23 | 41.02314 | -9.76661 | 36120 ft | 468 kts | 32° |
| 2026-05-05 20:24 | 41.07564 | -9.71555 | 36105 ft | 468 kts | 32° |
| 2026-05-05 20:24 | 41.12811 | -9.66442 | 36106 ft | 468 kts | 32° |
| 2026-05-05 20:25 | 41.18059 | -9.61317 | 36103 ft | 468 kts | 32° |
| 2026-05-05 20:25 | 41.23296 | -9.56193 | 36100 ft | 468 kts | 32° |
| 2026-05-05 20:26 | 41.28530 | -9.51061 | 36098 ft | 467 kts | 32° |
| 2026-05-05 20:26 | 41.33754 | -9.45928 | 36111 ft | 467 kts | 32° |
| 2026-05-05 20:27 | 41.38950 | -9.40813 | 36094 ft | 467 kts | 32° |
| 2026-05-05 20:27 | 41.44174 | -9.35660 | 36097 ft | 468 kts | 32° |
| 2026-05-05 20:28 | 41.49397 | -9.30496 | 36087 ft | 467 kts | 32° |
| 2026-05-05 20:28 | 41.54620 | -9.25322 | 36095 ft | 467 kts | 32° |
| 2026-05-05 20:29 | 41.59831 | -9.20149 | 36084 ft | 467 kts | 32° |
| 2026-05-05 20:29 | 41.65036 | -9.14972 | 36100 ft | 467 kts | 33° |
| 2026-05-05 20:30 | 41.70242 | -9.09783 | 36086 ft | 466 kts | 33° |
| 2026-05-05 20:30 | 41.75443 | -9.04586 | 36084 ft | 466 kts | 33° |
| 2026-05-05 20:31 | 41.80637 | -8.99388 | 36082 ft | 466 kts | 33° |
| 2026-05-05 20:31 | 41.85826 | -8.94185 | 36101 ft | 465 kts | 32° |
| 2026-05-05 20:32 | 41.91373 | -8.89883 | 36158 ft | 456 kts | 21° |
| 2026-05-05 20:32 | 41.97137 | -8.86260 | 36076 ft | 458 kts | 21° |
| 2026-05-05 20:33 | 42.02903 | -8.82631 | 36083 ft | 458 kts | 21° |
| 2026-05-05 20:33 | 42.08649 | -8.78953 | 36111 ft | 458 kts | 21° |
| 2026-05-05 20:34 | 42.14392 | -8.75239 | 36095 ft | 457 kts | 21° |
| 2026-05-05 20:34 | 42.20124 | -8.71518 | 36091 ft | 457 kts | 21° |
| 2026-05-05 20:35 | 42.25838 | -8.67802 | 36074 ft | 457 kts | 21° |
| 2026-05-05 20:35 | 42.31567 | -8.64071 | 36085 ft | 456 kts | 21° |
| 2026-05-05 20:36 | 42.37279 | -8.60343 | 36082 ft | 456 kts | 21° |
| 2026-05-05 20:36 | 42.42944 | -8.56639 | 36082 ft | 455 kts | 22° |
| 2026-05-05 20:37 | 42.48645 | -8.52904 | 36086 ft | 455 kts | 22° |
| 2026-05-05 20:37 | 42.54340 | -8.49165 | 36086 ft | 455 kts | 22° |
| 2026-05-05 20:38 | 42.60030 | -8.45421 | 36100 ft | 454 kts | 22° |
| 2026-05-05 20:38 | 42.65719 | -8.41671 | 36090 ft | 455 kts | 22° |
| 2026-05-05 20:39 | 42.71408 | -8.37913 | 36105 ft | 455 kts | 22° |
| 2026-05-05 20:39 | 42.77101 | -8.34145 | 36109 ft | 455 kts | 22° |
| 2026-05-05 20:40 | 42.82792 | -8.30369 | 36096 ft | 455 kts | 22° |
| 2026-05-05 20:40 | 42.88478 | -8.26591 | 36105 ft | 454 kts | 22° |
| 2026-05-05 20:41 | 42.94157 | -8.22808 | 36093 ft | 454 kts | 22° |
| 2026-05-05 20:41 | 42.99826 | -8.19024 | 36085 ft | 454 kts | 22° |
| 2026-05-05 20:42 | 43.05490 | -8.15236 | 36102 ft | 453 kts | 22° |
| 2026-05-05 20:42 | 43.11140 | -8.11449 | 36100 ft | 452 kts | 22° |
| 2026-05-05 20:43 | 43.16780 | -8.07662 | 36106 ft | 451 kts | 22° |
| 2026-05-05 20:43 | 43.21467 | -8.04509 | 36084 ft | 451 kts | 22° |
| 2026-05-05 20:44 | 43.27087 | -8.00719 | 36109 ft | 450 kts | 22° |
| 2026-05-05 20:44 | 43.32701 | -7.96927 | 36108 ft | 449 kts | 22° |
| 2026-05-05 20:45 | 43.41110 | -7.91233 | 36092 ft | 449 kts | 22° |
| 2026-05-05 20:45 | 43.46713 | -7.87428 | 36083 ft | 449 kts | 22° |
| 2026-05-05 20:46 | 43.52300 | -7.83626 | 36080 ft | 448 kts | 22° |
| 2026-05-05 20:46 | 43.57887 | -7.79816 | 36112 ft | 447 kts | 22° |
| 2026-05-05 20:47 | 43.63469 | -7.76003 | 36097 ft | 447 kts | 22° |
| 2026-05-05 20:47 | 43.69034 | -7.72192 | 36080 ft | 446 kts | 22° |
| 2026-05-05 20:48 | 43.74585 | -7.68383 | 36069 ft | 445 kts | 22° |
| 2026-05-05 20:48 | 43.80119 | -7.64579 | 36098 ft | 444 kts | 22° |
| 2026-05-05 20:49 | 43.85646 | -7.60771 | 36089 ft | 443 kts | 22° |
| 2026-05-05 20:49 | 43.91163 | -7.56962 | 36075 ft | 443 kts | 22° |
| 2026-05-05 20:50 | 43.96678 | -7.53146 | 36089 ft | 443 kts | 22° |
| 2026-05-05 20:50 | 44.02197 | -7.49320 | 36076 ft | 443 kts | 23° |
| 2026-05-05 20:51 | 44.07676 | -7.45514 | 36082 ft | 443 kts | 23° |
| 2026-05-05 20:51 | 44.13192 | -7.41673 | 36072 ft | 443 kts | 23° |
| 2026-05-05 20:52 | 44.18705 | -7.37827 | 36085 ft | 443 kts | 23° |
| 2026-05-05 20:52 | 44.24219 | -7.33972 | 36070 ft | 444 kts | 24° |
| 2026-05-05 20:53 | 44.29735 | -7.30107 | 36071 ft | 444 kts | 24° |
| 2026-05-05 20:53 | 44.35247 | -7.26238 | 36070 ft | 444 kts | 24° |
| 2026-05-05 20:54 | 44.40760 | -7.22359 | 36073 ft | 443 kts | 24° |
| 2026-05-05 20:54 | 44.46274 | -7.18471 | 36061 ft | 444 kts | 24° |
| 2026-05-05 20:55 | 44.51780 | -7.14580 | 36062 ft | 444 kts | 24° |
| 2026-05-05 20:55 | 44.57295 | -7.10675 | 36075 ft | 443 kts | 24° |
| 2026-05-05 20:56 | 44.62804 | -7.06765 | 36051 ft | 444 kts | 24° |
| 2026-05-05 20:56 | 44.68311 | -7.02849 | 36071 ft | 444 kts | 24° |
| 2026-05-05 20:57 | 44.73816 | -6.98925 | 36048 ft | 444 kts | 24° |
| 2026-05-05 20:57 | 44.79323 | -6.94992 | 36071 ft | 444 kts | 24° |
| 2026-05-05 20:58 | 44.84811 | -6.91013 | 36051 ft | 445 kts | 26° |
| 2026-05-05 20:58 | 44.90178 | -6.86666 | 36082 ft | 445 kts | 28° |
| 2026-05-05 20:59 | 44.95508 | -6.82204 | 36062 ft | 446 kts | 28° |
| 2026-05-05 20:59 | 45.00814 | -6.77782 | 36066 ft | 446 kts | 28° |
| 2026-05-05 21:00 | 45.06170 | -6.73345 | 36050 ft | 446 kts | 28° |
| 2026-05-05 21:00 | 45.11528 | -6.68909 | 36051 ft | 446 kts | 28° |
| 2026-05-05 21:01 | 45.16887 | -6.64464 | 36051 ft | 446 kts | 28° |
| 2026-05-05 21:01 | 45.22242 | -6.60012 | 36056 ft | 445 kts | 29° |
| 2026-05-05 21:02 | 45.27580 | -6.55564 | 36056 ft | 444 kts | 29° |
| 2026-05-05 21:02 | 45.32901 | -6.51120 | 36040 ft | 443 kts | 29° |
| 2026-05-05 21:03 | 45.38211 | -6.46676 | 36046 ft | 442 kts | 29° |
| 2026-05-05 21:03 | 45.43500 | -6.42239 | 36030 ft | 441 kts | 29° |
| 2026-05-05 21:04 | 45.48771 | -6.37808 | 36031 ft | 440 kts | 29° |
| 2026-05-05 21:04 | 45.54032 | -6.33375 | 36037 ft | 439 kts | 29° |
| 2026-05-05 21:05 | 45.59289 | -6.28936 | 36036 ft | 439 kts | 29° |
| 2026-05-05 21:05 | 45.64533 | -6.24498 | 36041 ft | 438 kts | 30° |
| 2026-05-05 21:06 | 45.69782 | -6.20046 | 36045 ft | 438 kts | 30° |
| 2026-05-05 21:06 | 45.75010 | -6.15603 | 36026 ft | 438 kts | 30° |
| 2026-05-05 21:07 | 45.80261 | -6.11129 | 36011 ft | 439 kts | 30° |
| 2026-05-05 21:07 | 45.85499 | -6.06658 | 36037 ft | 438 kts | 30° |
| 2026-05-05 21:08 | 45.90735 | -6.02177 | 36013 ft | 438 kts | 30° |
| 2026-05-05 21:08 | 45.95966 | -5.97691 | 36024 ft | 438 kts | 30° |
| 2026-05-05 21:09 | 46.01194 | -5.93197 | 36028 ft | 438 kts | 30° |
| 2026-05-05 21:09 | 46.06416 | -5.88699 | 36020 ft | 438 kts | 30° |
| 2026-05-05 21:10 | 46.11631 | -5.84197 | 36034 ft | 437 kts | 30° |
| 2026-05-05 21:10 | 46.16846 | -5.79685 | 36009 ft | 437 kts | 30° |
| 2026-05-05 21:11 | 46.22015 | -5.75202 | 36015 ft | 436 kts | 30° |
| 2026-05-05 21:11 | 46.27245 | -5.70657 | 36004 ft | 436 kts | 30° |
| 2026-05-05 21:12 | 46.32399 | -5.66167 | 36005 ft | 435 kts | 30° |
| 2026-05-05 21:12 | 46.37580 | -5.61643 | 36016 ft | 435 kts | 30° |
| 2026-05-05 21:13 | 46.42763 | -5.57109 | 36005 ft | 435 kts | 30° |
| 2026-05-05 21:13 | 46.47940 | -5.52568 | 36008 ft | 435 kts | 30° |
| 2026-05-05 21:14 | 46.53115 | -5.48019 | 36005 ft | 435 kts | 30° |
| 2026-05-05 21:14 | 46.58290 | -5.43460 | 35993 ft | 435 kts | 30° |
| 2026-05-05 21:15 | 46.63465 | -5.38893 | 36004 ft | 435 kts | 30° |
| 2026-05-05 21:15 | 46.68639 | -5.34320 | 35987 ft | 435 kts | 30° |
| 2026-05-05 21:16 | 46.73812 | -5.29737 | 35997 ft | 435 kts | 30° |
| 2026-05-05 21:16 | 46.78984 | -5.25144 | 36000 ft | 436 kts | 31° |
| 2026-05-05 21:17 | 46.84168 | -5.20529 | 35998 ft | 437 kts | 31° |
| 2026-05-05 21:17 | 46.89367 | -5.15891 | 35995 ft | 438 kts | 31° |
| 2026-05-05 21:18 | 46.94569 | -5.11238 | 35997 ft | 439 kts | 31° |
| 2026-05-05 21:18 | 46.99775 | -5.06572 | 35998 ft | 439 kts | 31° |
| 2026-05-05 21:19 | 47.04980 | -5.01895 | 35996 ft | 439 kts | 31° |
| 2026-05-05 21:19 | 47.10181 | -4.97211 | 35990 ft | 438 kts | 31° |
| 2026-05-05 21:20 | 47.15373 | -4.92525 | 35994 ft | 438 kts | 31° |
| 2026-05-05 21:20 | 47.20554 | -4.87837 | 35996 ft | 438 kts | 31° |
| 2026-05-05 21:21 | 47.25739 | -4.83135 | 35999 ft | 438 kts | 31° |
| 2026-05-05 21:21 | 47.30887 | -4.78456 | 35993 ft | 438 kts | 31° |
| 2026-05-05 21:22 | 47.36068 | -4.73736 | 35996 ft | 438 kts | 31° |
| 2026-05-05 21:22 | 47.41250 | -4.69004 | 35998 ft | 438 kts | 31° |
| 2026-05-05 21:23 | 47.46434 | -4.64258 | 35999 ft | 438 kts | 31° |
| 2026-05-05 21:23 | 47.51619 | -4.59500 | 36001 ft | 439 kts | 31° |
| 2026-05-05 21:24 | 47.56797 | -4.54738 | 35997 ft | 438 kts | 31° |
| 2026-05-05 21:24 | 47.61975 | -4.49964 | 36000 ft | 438 kts | 31° |
| 2026-05-05 21:25 | 47.67141 | -4.45191 | 35998 ft | 438 kts | 31° |
| 2026-05-05 21:25 | 47.72314 | -4.40398 | 36000 ft | 438 kts | 31° |
| 2026-05-05 21:26 | 47.77482 | -4.35601 | 36006 ft | 438 kts | 31° |
| 2026-05-05 21:26 | 47.82754 | -4.31078 | 35961 ft | 438 kts | 22° |
| 2026-05-05 21:27 | 47.88543 | -4.28381 | 36005 ft | 436 kts | 15° |
| 2026-05-05 21:27 | 47.94397 | -4.25980 | 35987 ft | 437 kts | 15° |
| 2026-05-05 21:28 | 48.00264 | -4.23527 | 35989 ft | 439 kts | 15° |
| 2026-05-05 21:28 | 48.06140 | -4.21019 | 35996 ft | 440 kts | 15° |
| 2026-05-05 21:29 | 48.12040 | -4.18479 | 36000 ft | 442 kts | 16° |
| 2026-05-05 21:29 | 48.17964 | -4.15921 | 35993 ft | 443 kts | 15° |
| 2026-05-05 21:30 | 48.23857 | -4.13371 | 36020 ft | 444 kts | 16° |
| 2026-05-05 21:30 | 48.29800 | -4.10794 | 36016 ft | 445 kts | 16° |
| 2026-05-05 21:31 | 48.35786 | -4.08193 | 36017 ft | 445 kts | 16° |
| 2026-05-05 21:31 | 48.41692 | -4.05619 | 36012 ft | 445 kts | 16° |
| 2026-05-05 21:32 | 48.47635 | -4.03024 | 36020 ft | 444 kts | 16° |
| 2026-05-05 21:32 | 48.53571 | -4.00425 | 35988 ft | 444 kts | 16° |
| 2026-05-05 21:33 | 48.59504 | -3.97820 | 35993 ft | 444 kts | 16° |
| 2026-05-05 21:33 | 48.65425 | -3.95216 | 36001 ft | 443 kts | 15° |
| 2026-05-05 21:34 | 48.70388 | -3.93027 | 35996 ft | 443 kts | 16° |
| 2026-05-05 21:34 | 48.76265 | -3.90429 | 35997 ft | 443 kts | 16° |
| 2026-05-05 21:35 | 48.82182 | -3.87808 | 36000 ft | 443 kts | 16° |
| 2026-05-05 21:35 | 48.88104 | -3.85177 | 35987 ft | 443 kts | 15° |
| 2026-05-05 21:36 | 48.94028 | -3.82540 | 35993 ft | 444 kts | 15° |
| 2026-05-05 21:36 | 49.00054 | -3.80583 | 35962 ft | 444 kts | 2° |
| 2026-05-05 21:37 | 49.03124 | -3.80385 | 36072 ft | 441 kts | 1° |
| 2026-05-05 21:37 | 49.06200 | -3.80246 | 35975 ft | 444 kts | 1° |
| 2026-05-05 21:37 | 49.12379 | -3.79971 | 35976 ft | 445 kts | 1° |
| 2026-05-05 21:38 | 49.18571 | -3.79634 | 35981 ft | 446 kts | 2° |
| 2026-05-05 21:38 | 49.24768 | -3.79261 | 36001 ft | 446 kts | 2° |
| 2026-05-05 21:39 | 49.30976 | -3.78878 | 35992 ft | 447 kts | 2° |
| 2026-05-05 21:39 | 49.37202 | -3.78495 | 35994 ft | 448 kts | 2° |
| 2026-05-05 21:40 | 49.43444 | -3.78111 | 35989 ft | 449 kts | 2° |
| 2026-05-05 21:40 | 49.49688 | -3.77727 | 35986 ft | 450 kts | 2° |
| 2026-05-05 21:41 | 49.55957 | -3.77340 | 35986 ft | 451 kts | 1° |
| 2026-05-05 21:41 | 49.62232 | -3.76951 | 35990 ft | 452 kts | 2° |
| 2026-05-05 21:42 | 49.68518 | -3.76561 | 35978 ft | 452 kts | 2° |
| 2026-05-05 21:42 | 49.74799 | -3.75977 | 35993 ft | 452 kts | 3° |
| 2026-05-05 21:43 | 49.81067 | -3.75187 | 35993 ft | 452 kts | 4° |
| 2026-05-05 21:43 | 49.87336 | -3.74399 | 35987 ft | 451 kts | 4° |
| 2026-05-05 21:44 | 49.93588 | -3.73640 | 35998 ft | 450 kts | 3° |
| 2026-05-05 21:44 | 49.99822 | -3.72897 | 35980 ft | 449 kts | 3° |
| 2026-05-05 21:45 | 50.06044 | -3.72154 | 35981 ft | 447 kts | 2° |
| 2026-05-05 21:45 | 50.12232 | -3.71413 | 35991 ft | 446 kts | 3° |
| 2026-05-05 21:46 | 50.18414 | -3.70670 | 35988 ft | 445 kts | 3° |
| 2026-05-05 21:46 | 50.24577 | -3.69926 | 35996 ft | 444 kts | 3° |
| 2026-05-05 21:47 | 50.30695 | -3.69190 | 35997 ft | 444 kts | 5° |
| 2026-05-05 21:47 | 50.36852 | -3.68440 | 35998 ft | 445 kts | 3° |
| 2026-05-05 21:48 | 50.43032 | -3.67661 | 35997 ft | 446 kts | 5° |
| 2026-05-05 21:48 | 50.49205 | -3.66463 | 36001 ft | 448 kts | 6° |
| 2026-05-05 21:49 | 50.55402 | -3.65247 | 36006 ft | 449 kts | 5° |
| 2026-05-05 21:49 | 50.61620 | -3.64061 | 36004 ft | 450 kts | 6° |
| 2026-05-05 21:50 | 50.67844 | -3.62872 | 35998 ft | 451 kts | 6° |
| 2026-05-05 21:50 | 50.74084 | -3.61674 | 35994 ft | 451 kts | 6° |
| 2026-05-05 21:51 | 50.80306 | -3.60477 | 35997 ft | 450 kts | 6° |
| 2026-05-05 21:51 | 50.86522 | -3.59277 | 36005 ft | 449 kts | 6° |
| 2026-05-05 21:52 | 50.95796 | -3.57483 | 35997 ft | 447 kts | 6° |
| 2026-05-05 21:53 | 51.01958 | -3.56286 | 36004 ft | 445 kts | 6° |
| 2026-05-05 21:53 | 51.08054 | -3.55099 | 36010 ft | 444 kts | 6° |
| 2026-05-05 21:54 | 51.14174 | -3.53905 | 36015 ft | 443 kts | 6° |
| 2026-05-05 21:54 | 51.20287 | -3.52709 | 36014 ft | 443 kts | 6° |
| 2026-05-05 21:55 | 51.26408 | -3.51508 | 36012 ft | 443 kts | 6° |
| 2026-05-05 21:55 | 51.32527 | -3.50308 | 36020 ft | 443 kts | 6° |
| 2026-05-05 21:56 | 51.38647 | -3.49106 | 36022 ft | 443 kts | 6° |
| 2026-05-05 21:56 | 51.44770 | -3.47900 | 36022 ft | 444 kts | 6° |
| 2026-05-05 21:57 | 51.50902 | -3.46688 | 36023 ft | 444 kts | 6° |
| 2026-05-05 21:57 | 51.57042 | -3.45472 | 36017 ft | 445 kts | 6° |
| 2026-05-05 21:58 | 51.63189 | -3.44250 | 36026 ft | 446 kts | 6° |
| 2026-05-05 21:58 | 51.69347 | -3.43023 | 36028 ft | 447 kts | 6° |
| 2026-05-05 21:59 | 51.75526 | -3.41789 | 36023 ft | 448 kts | 6° |
| 2026-05-05 21:59 | 51.81708 | -3.40550 | 36033 ft | 448 kts | 5° |
| 2026-05-05 22:00 | 51.87902 | -3.39307 | 36040 ft | 449 kts | 6° |
| 2026-05-05 22:00 | 51.94111 | -3.38127 | 36027 ft | 449 kts | 3° |
| 2026-05-05 22:01 | 52.00335 | -3.37603 | 36048 ft | 448 kts | 0° |
| 2026-05-05 22:01 | 52.06572 | -3.37256 | 36050 ft | 448 kts | 0° |
| 2026-05-05 22:02 | 52.12802 | -3.36854 | 36034 ft | 449 kts | 1° |
| 2026-05-05 22:02 | 52.19035 | -3.36406 | 36039 ft | 445 kts | 1° |
| 2026-05-05 22:02 | 52.22095 | -3.36179 | 35788 ft | 435 kts | 1° |
| 2026-05-05 22:03 | 52.25102 | -3.35954 | 35167 ft | 434 kts | 0° |
| 2026-05-05 22:03 | 52.28132 | -3.35690 | 34415 ft | 437 kts | 2° |
| 2026-05-05 22:03 | 52.31117 | -3.35221 | 33903 ft | 434 kts | 4° |
| 2026-05-05 22:03 | 52.34126 | -3.34642 | 33485 ft | 427 kts | 5° |
| 2026-05-05 22:04 | 52.37057 | -3.34055 | 33016 ft | 422 kts | 5° |
| 2026-05-05 22:04 | 52.39962 | -3.33485 | 32457 ft | 419 kts | 5° |
| 2026-05-05 22:04 | 52.42820 | -3.32942 | 31895 ft | 418 kts | 4° |
| 2026-05-05 22:04 | 52.45696 | -3.32410 | 31402 ft | 415 kts | 4° |
| 2026-05-05 22:05 | 52.48548 | -3.31890 | 30973 ft | 411 kts | 4° |
| 2026-05-05 22:05 | 52.51381 | -3.31378 | 30475 ft | 409 kts | 4° |
| 2026-05-05 22:05 | 52.54200 | -3.30869 | 29965 ft | 407 kts | 4° |
| 2026-05-05 22:05 | 52.57011 | -3.30362 | 29276 ft | 406 kts | 4° |
| 2026-05-05 22:06 | 52.59863 | -3.29848 | 27881 ft | 421 kts | 4° |
| 2026-05-05 22:06 | 52.62823 | -3.29314 | 26585 ft | 433 kts | 4° |
| 2026-05-05 22:06 | 52.65837 | -3.28764 | 25531 ft | 437 kts | 4° |
| 2026-05-05 22:06 | 52.68864 | -3.28212 | 24356 ft | 444 kts | 4° |
| 2026-05-05 22:07 | 52.71951 | -3.27625 | 23123 ft | 448 kts | 6° |
| 2026-05-05 22:07 | 52.74995 | -3.26339 | 21812 ft | 455 kts | 18° |
| 2026-05-05 22:07 | 52.77913 | -3.24434 | 21033 ft | 447 kts | 20° |
| 2026-05-05 22:07 | 52.80754 | -3.22498 | 20274 ft | 437 kts | 20° |
| 2026-05-05 22:08 | 52.83550 | -3.20566 | 19369 ft | 433 kts | 21° |
| 2026-05-05 22:08 | 52.86311 | -3.18647 | 18489 ft | 429 kts | 21° |
| 2026-05-05 22:08 | 52.89046 | -3.16743 | 17616 ft | 424 kts | 21° |
| 2026-05-05 22:08 | 52.91742 | -3.14867 | 16794 ft | 416 kts | 21° |
| 2026-05-05 22:09 | 52.94392 | -3.13024 | 15998 ft | 410 kts | 21° |
| 2026-05-05 22:09 | 52.97009 | -3.11204 | 15192 ft | 405 kts | 21° |
| 2026-05-05 22:09 | 52.99586 | -3.09411 | 14369 ft | 400 kts | 21° |
| 2026-05-05 22:09 | 53.02147 | -3.07628 | 13560 ft | 396 kts | 21° |
| 2026-05-05 22:10 | 53.04666 | -3.05873 | 12754 ft | 390 kts | 21° |
| 2026-05-05 22:10 | 53.07146 | -3.04140 | 11985 ft | 384 kts | 21° |
| 2026-05-05 22:10 | 53.09443 | -3.01931 | 11128 ft | 385 kts | 39° |
| 2026-05-05 22:10 | 53.11180 | -2.98641 | 10479 ft | 381 kts | 53° |
| 2026-05-05 22:11 | 53.12465 | -2.94831 | 9717 ft | 379 kts | 64° |
| 2026-05-05 22:11 | 53.13461 | -2.90689 | 8666 ft | 380 kts | 67° |
| 2026-05-05 22:11 | 53.14397 | -2.86590 | 7921 ft | 375 kts | 68° |
| 2026-05-05 22:11 | 53.15302 | -2.82625 | 7519 ft | 359 kts | 68° |
| 2026-05-05 22:12 | 53.16172 | -2.78814 | 6778 ft | 356 kts | 71° |
| 2026-05-05 22:12 | 53.16602 | -2.74730 | 5950 ft | 354 kts | 91° |
| 2026-05-05 22:12 | 53.16113 | -2.70827 | 5319 ft | 348 kts | 112° |
| 2026-05-05 22:12 | 53.14806 | -2.67485 | 4591 ft | 345 kts | 133° |
| 2026-05-05 22:13 | 53.12875 | -2.65164 | 3934 ft | 342 kts | 153° |
| 2026-05-05 22:13 | 53.10592 | -2.64184 | 3304 ft | 340 kts | 175° |
| 2026-05-05 22:13 | 53.08311 | -2.64781 | 3098 ft | 327 kts | 199° |
| 2026-05-05 22:13 | 53.06443 | -2.66754 | 3007 ft | 313 kts | 224° |
| 2026-05-05 22:14 | 53.05269 | -2.69658 | 2994 ft | 298 kts | 247° |
| 2026-05-05 22:14 | 53.04882 | -2.72936 | 2990 ft | 283 kts | 271° |
| 2026-05-05 22:14 | 53.05223 | -2.76040 | 2985 ft | 267 kts | 292° |
| 2026-05-05 22:14 | 53.06136 | -2.78615 | 2986 ft | 252 kts | 313° |
| 2026-05-05 22:15 | 53.07417 | -2.80437 | 2980 ft | 236 kts | 332° |
| 2026-05-05 22:15 | 53.08879 | -2.81445 | 2983 ft | 220 kts | 350° |
| 2026-05-05 22:15 | 53.10353 | -2.81676 | 2976 ft | 207 kts | 7° |
| 2026-05-05 22:15 | 53.11737 | -2.81232 | 2981 ft | 200 kts | 23° |
| 2026-05-05 22:16 | 53.12992 | -2.80280 | 2997 ft | 198 kts | 32° |
| 2026-05-05 22:16 | 53.14126 | -2.78986 | 2991 ft | 199 kts | 43° |
| 2026-05-05 22:16 | 53.15004 | -2.77223 | 2981 ft | 198 kts | 63° |
| 2026-05-05 22:16 | 53.15634 | -2.75188 | 3002 ft | 198 kts | 64° |
| 2026-05-05 22:17 | 53.16264 | -2.73145 | 3005 ft | 197 kts | 64° |
| 2026-05-05 22:17 | 53.16879 | -2.71137 | 2986 ft | 190 kts | 64° |
| 2026-05-05 22:17 | 53.17462 | -2.69224 | 2970 ft | 181 kts | 65° |
| 2026-05-05 22:17 | 53.18015 | -2.67392 | 2994 ft | 173 kts | 64° |
| 2026-05-05 22:18 | 53.18554 | -2.65602 | 2996 ft | 173 kts | 65° |
| 2026-05-05 22:18 | 53.19094 | -2.63803 | 2985 ft | 175 kts | 65° |
| 2026-05-05 22:18 | 53.19639 | -2.61984 | 2996 ft | 175 kts | 65° |
| 2026-05-05 22:18 | 53.20183 | -2.60163 | 3002 ft | 176 kts | 65° |
| 2026-05-05 22:19 | 53.20729 | -2.58334 | 2992 ft | 177 kts | 65° |
| 2026-05-05 22:19 | 53.21276 | -2.56499 | 2990 ft | 177 kts | 65° |
| 2026-05-05 22:19 | 53.21821 | -2.54667 | 2992 ft | 176 kts | 64° |
| 2026-05-05 22:19 | 53.22491 | -2.52980 | 2980 ft | 171 kts | 50° |
| 2026-05-05 22:20 | 53.23239 | -2.51510 | 3018 ft | 165 kts | 51° |
| 2026-05-05 22:20 | 53.23966 | -2.50039 | 2995 ft | 161 kts | 51° |
| 2026-05-05 22:20 | 53.24682 | -2.48639 | 2830 ft | 157 kts | 51° |
| 2026-05-05 22:20 | 53.25364 | -2.47272 | 2656 ft | 152 kts | 52° |
| 2026-05-05 22:21 | 53.26006 | -2.45950 | 2435 ft | 140 kts | 52° |
| 2026-05-05 22:21 | 53.26602 | -2.44717 | 2256 ft | 134 kts | 53° |
| 2026-05-05 22:21 | 53.27182 | -2.43513 | 2093 ft | 132 kts | 53° |
| 2026-05-05 22:21 | 53.27756 | -2.42324 | 1916 ft | 132 kts | 52° |
| 2026-05-05 22:22 | 53.28333 | -2.41129 | 1742 ft | 133 kts | 52° |
| 2026-05-05 22:22 | 53.28911 | -2.39932 | 1580 ft | 131 kts | 52° |
| 2026-05-05 22:22 | 53.29484 | -2.38748 | 1386 ft | 132 kts | 53° |
| 2026-05-05 22:22 | 53.30046 | -2.37582 | 1219 ft | 128 kts | 53° |
| 2026-05-05 22:23 | 53.30601 | -2.36432 | 1051 ft | 133 kts | 53° |
| 2026-05-05 22:23 | 53.31190 | -2.35214 | 852 ft | 136 kts | 52° |
| 2026-05-05 22:23 | 53.31781 | -2.33993 | 695 ft | 136 kts | 52° |
| 2026-05-05 22:23 | 53.32384 | -2.32749 | 523 ft | 137 kts | 52° |
| 2026-05-05 22:24 | 53.32784 | -2.31921 | 380 ft | 141 kts | 52° |
| 2026-05-05 22:24 | 53.33387 | -2.30657 | 396 ft | 133 kts | 53° |
| 2026-05-05 22:24 | 53.33929 | -2.29535 | 445 ft | 121 kts | 52° |
| 2026-05-05 22:24 | 53.34496 | -2.28296 | 819 ft | 142 kts | 54° |
| 2026-05-05 22:25 | 53.35182 | -2.26703 | 1368 ft | 179 kts | 56° |
| 2026-05-05 22:25 | 53.35893 | -2.25076 | 2760 ft | 192 kts | 54° |
| 2026-05-05 22:25 | 53.36843 | -2.22887 | 1736 ft | 253 kts | 54° |
| 2026-05-05 22:25 | 53.37941 | -2.20338 | 1306 ft | 281 kts | 55° |
| 2026-05-05 22:26 | 53.39072 | -2.17711 | 1604 ft | 277 kts | 56° |
| 2026-05-05 22:26 | 53.39987 | -2.14912 | 2082 ft | 261 kts | 70° |
| 2026-05-05 22:26 | 53.40328 | -2.12054 | 2434 ft | 246 kts | 90° |
| 2026-05-05 22:26 | 53.39866 | -2.09371 | 2628 ft | 244 kts | 119° |
| 2026-05-05 22:27 | 53.38605 | -2.07397 | 2871 ft | 257 kts | 149° |
| 2026-05-05 22:27 | 53.36917 | -2.06346 | 2998 ft | 264 kts | 160° |
| 2026-05-05 22:27 | 53.35152 | -2.05491 | 3013 ft | 265 kts | 169° |
| 2026-05-05 22:27 | 53.33343 | -2.05918 | 3046 ft | 269 kts | 205° |
| 2026-05-05 22:28 | 53.32016 | -2.08128 | 3505 ft | 275 kts | 243° |
| 2026-05-05 22:28 | 53.31418 | -2.11180 | 3528 ft | 275 kts | 256° |
| 2026-05-05 22:28 | 53.30850 | -2.14218 | 3517 ft | 273 kts | 252° |
| 2026-05-05 22:28 | 53.30224 | -2.17192 | 3529 ft | 269 kts | 251° |
| 2026-05-05 22:29 | 53.29586 | -2.20130 | 3526 ft | 268 kts | 251° |
| 2026-05-05 22:29 | 53.28946 | -2.23041 | 3524 ft | 266 kts | 250° |
| 2026-05-05 22:29 | 53.28304 | -2.25935 | 3520 ft | 265 kts | 250° |
| 2026-05-05 22:29 | 53.27491 | -2.28713 | 3522 ft | 269 kts | 242° |
| 2026-05-05 22:30 | 53.26429 | -2.31338 | 3519 ft | 274 kts | 232° |
| 2026-05-05 22:30 | 53.25225 | -2.33789 | 3518 ft | 274 kts | 231° |
| 2026-05-05 22:30 | 53.23946 | -2.36325 | 3534 ft | 301 kts | 230° |
| 2026-05-05 22:30 | 53.22507 | -2.39178 | 3544 ft | 339 kts | 229° |
| 2026-05-05 22:31 | 53.20987 | -2.42238 | 3520 ft | 344 kts | 230° |
| 2026-05-05 22:31 | 53.19561 | -2.45461 | 3518 ft | 346 kts | 237° |
| 2026-05-05 22:31 | 53.18343 | -2.48892 | 3507 ft | 338 kts | 242° |
| 2026-05-05 22:31 | 53.17635 | -2.52487 | 3491 ft | 317 kts | 265° |
| 2026-05-05 22:32 | 53.17833 | -2.55989 | 3504 ft | 296 kts | 289° |
| 2026-05-05 22:32 | 53.18832 | -2.58834 | 3506 ft | 276 kts | 316° |
| 2026-05-05 22:32 | 53.20371 | -2.60487 | 3490 ft | 257 kts | 345° |
| 2026-05-05 22:32 | 53.22071 | -2.60669 | 3494 ft | 238 kts | 14° |
| 2026-05-05 22:33 | 53.23474 | -2.59459 | 3499 ft | 222 kts | 45° |
| 2026-05-05 22:33 | 53.24297 | -2.57410 | 3511 ft | 208 kts | 69° |
| 2026-05-05 22:33 | 53.24574 | -2.55106 | 3508 ft | 200 kts | 90° |
| 2026-05-05 22:33 | 53.24384 | -2.52858 | 3518 ft | 193 kts | 98° |
| 2026-05-05 22:34 | 53.24211 | -2.50664 | 3506 ft | 186 kts | 85° |
| 2026-05-05 22:34 | 53.24633 | -2.48770 | 3522 ft | 167 kts | 54° |
| 2026-05-05 22:34 | 53.25318 | -2.47272 | 3525 ft | 160 kts | 50° |
| 2026-05-05 22:34 | 53.26013 | -2.45845 | 3522 ft | 158 kts | 51° |
| 2026-05-05 22:35 | 53.26738 | -2.44403 | 3163 ft | 170 kts | 50° |
| 2026-05-05 22:35 | 53.27497 | -2.42861 | 2542 ft | 172 kts | 52° |
| 2026-05-05 22:35 | 53.28235 | -2.41331 | 1937 ft | 171 kts | 52° |
| 2026-05-05 22:35 | 53.28958 | -2.39836 | 1586 ft | 156 kts | 52° |
| 2026-05-05 22:36 | 53.29608 | -2.38491 | 1371 ft | 142 kts | 52° |
| 2026-05-05 22:36 | 53.30208 | -2.37250 | 1172 ft | 135 kts | 52° |
| 2026-05-05 22:36 | 53.30810 | -2.35999 | 1021 ft | 140 kts | 52° |
| 2026-05-05 22:36 | 53.31427 | -2.34723 | 807 ft | 142 kts | 52° |
| 2026-05-05 22:37 | 53.32015 | -2.33510 | 634 ft | 138 kts | 52° |
| 2026-05-05 22:37 | 53.32619 | -2.32262 | 485 ft | 136 kts | 52° |
| 2026-05-05 22:37 | 53.33220 | -2.31029 | 304 ft | 136 kts | 51° |
| 2026-05-05 22:37 | 53.33805 | -2.29796 | 227 ft | 132 kts | 52° |
| 2026-05-05 22:38 | 53.34149 | -2.29098 | 231 ft | 24 kts | 50° |
| 2026-05-05 22:38 | 53.34162 | -2.29073 | 230 ft | 0 kts | 50° |
| 2026-05-05 22:38 | 53.34178 | -2.29039 | 230 ft | 17 kts | 51° |
| 2026-05-05 22:38 | 53.34316 | -2.28757 | 225 ft | 34 kts | 47° |
| 2026-05-05 22:39 | 53.34484 | -2.28552 | 228 ft | 24 kts | 24° |
| 2026-05-05 22:39 | 53.34572 | -2.28492 | 227 ft | 12 kts | 22° |
| 2026-05-05 22:39 | 53.34652 | -2.28444 | 229 ft | 12 kts | 20° |
| 2026-05-05 22:39 | 53.34725 | -2.28376 | 229 ft | 12 kts | 41° |
| 2026-05-05 22:40 | 53.34778 | -2.28263 | 230 ft | 12 kts | 52° |
| 2026-05-05 22:40 | 53.34831 | -2.28152 | 230 ft | 13 kts | 51° |
| 2026-05-05 22:40 | 53.34888 | -2.28034 | 228 ft | 11 kts | 51° |
| 2026-05-05 22:40 | 53.34916 | -2.27975 | 228 ft | 4 kts | 51° |
| 2026-05-05 22:41 | 53.34935 | -2.27940 | 229 ft | 3 kts | 37° |
| 2026-05-05 22:41 | 53.34949 | -2.27952 | 229 ft | 3 kts | 319° |
| 2026-05-05 22:41 | 53.34955 | -2.27961 | 229 ft | 0 kts | 321° |
| 2026-05-05 22:43 | 53.35012 | -2.28039 | 232 ft | 22 kts | 322° |
| 2026-05-05 22:43 | 53.35128 | -2.28187 | 230 ft | 20 kts | 333° |
| 2026-05-05 22:43 | 53.35268 | -2.28186 | 231 ft | 20 kts | 9° |
| 2026-05-05 22:44 | 53.35375 | -2.28049 | 236 ft | 19 kts | 44° |
| 2026-05-05 22:44 | 53.35483 | -2.27923 | 238 ft | 19 kts | 10° |
| 2026-05-05 22:44 | 53.35620 | -2.27897 | 239 ft | 20 kts | 6° |
| 2026-05-05 22:44 | 53.35757 | -2.27871 | 247 ft | 19 kts | 6° |
| 2026-05-05 22:45 | 53.35889 | -2.27850 | 254 ft | 19 kts | 6° |
| 2026-05-05 22:45 | 53.36005 | -2.27922 | 254 ft | 18 kts | 320° |
| 2026-05-05 22:45 | 53.36098 | -2.28061 | 254 ft | 18 kts | 318° |
| 2026-05-05 22:45 | 53.36201 | -2.28138 | 254 ft | 17 kts | 21° |
| 2026-05-05 22:46 | 53.36306 | -2.28054 | 254 ft | 17 kts | 19° |
| 2026-05-05 22:46 | 53.36377 | -2.27958 | 254 ft | 9 kts | 47° |
| 2026-05-05 22:46 | 53.36386 | -2.27865 | 254 ft | 9 kts | 117° |
| 2026-05-05 22:46 | 53.36350 | -2.27779 | 254 ft | 6 kts | 109° |
| 2026-05-05 22:47 | 53.36373 | -2.27717 | 254 ft | 6 kts | 51° |
| 2026-05-05 22:47 | 53.36374 | -2.27714 | 254 ft | 0 kts | 51° |
| 2026-05-05 22:47 | 53.36387 | -2.27637 | 254 ft | 0 kts | 14° |